createdAt,value
2019-02-04T00:00:16.084Z,96321.7
2019-02-04T00:01:18.711Z,96321
2019-02-04T00:02:20.581Z,96327.1
2019-02-04T00:03:23.015Z,96325.6
2019-02-04T00:04:24.896Z,96327.4
2019-02-04T00:05:27.454Z,96326.7
2019-02-04T00:06:29.895Z,96326.2
2019-02-04T00:07:32.325Z,96328.3
2019-02-04T00:08:34.762Z,96329.5
2019-02-04T00:09:37.178Z,96332
2019-02-04T00:10:39.605Z,96330.2
2019-02-04T00:11:42.796Z,96334
2019-02-04T00:12:45.683Z,96338.8
2019-02-04T00:13:48.297Z,96335.5
2019-02-04T00:14:50.738Z,96334.1
2019-02-04T00:15:53.190Z,96338.5
2019-02-04T00:16:55.610Z,96337
2019-02-04T00:17:57.794Z,96340
2019-02-04T00:19:00.216Z,96341.1
2019-02-04T00:20:02.395Z,96340.5
2019-02-04T00:21:04.660Z,96343.3
2019-02-04T00:22:07.084Z,96343.7
2019-02-04T00:23:10.037Z,96340.4
2019-02-04T00:24:13.004Z,96341.8
2019-02-04T00:25:15.156Z,96345.3
2019-02-04T00:26:17.313Z,96349.6
2019-02-04T00:27:19.743Z,96344.1
2019-02-04T00:28:22.167Z,96352.5
2019-02-04T00:29:24.283Z,96353.2
2019-02-04T00:30:26.422Z,96351.9
2019-02-04T00:31:28.553Z,96357.3
2019-02-04T00:32:30.449Z,96354.6
2019-02-04T00:33:32.316Z,96354.2
2019-02-04T00:34:35.684Z,96354
2019-02-04T00:35:38.585Z,96353.8
2019-02-04T00:36:41.019Z,96357.3
2019-02-04T00:37:42.978Z,96353.1
2019-02-04T00:38:45.137Z,96350.9
2019-02-04T00:39:47.579Z,96355.9
2019-02-04T00:40:50.004Z,96356.3
2019-02-04T00:41:52.165Z,96356
2019-02-04T00:42:54.587Z,96361.6
2019-02-04T00:43:56.732Z,96360.1
2019-02-04T00:44:58.854Z,96360.3
2019-02-04T00:46:01.943Z,96363.6
2019-02-04T00:47:04.944Z,96364.8
2019-02-04T00:48:07.107Z,96366.2
2019-02-04T00:49:09.540Z,96369.5
2019-02-04T00:50:11.985Z,96365.1
2019-02-04T00:51:14.415Z,96364.6
2019-02-04T00:52:16.834Z,96369.3
2019-02-04T00:53:19.261Z,96370.7
2019-02-04T00:54:21.391Z,96371
2019-02-04T00:55:23.663Z,96371.4
2019-02-04T00:56:26.613Z,96372.9
2019-02-04T00:57:29.179Z,96370.1
2019-02-04T00:58:31.937Z,96372.5
2019-02-04T00:59:34.381Z,96375.2
2019-02-04T01:00:36.526Z,96380.4
2019-02-04T01:01:38.950Z,96379.9
2019-02-04T01:02:41.124Z,96380.3
2019-02-04T01:03:43.556Z,96380.4
2019-02-04T01:04:45.985Z,96381.8
2019-02-04T01:05:48.411Z,96380
2019-02-04T01:06:50.926Z,96388.7
2019-02-04T01:07:53.540Z,96387.1
2019-02-04T01:08:55.953Z,96392.4
2019-02-04T01:09:58.743Z,96396.9
2019-02-04T01:11:01.261Z,96397
2019-02-04T01:12:03.806Z,96396.4
2019-02-04T01:13:06.234Z,96401.4
2019-02-04T01:14:08.393Z,96399.6
2019-02-04T01:15:10.537Z,96400.6
2019-02-04T01:16:12.711Z,96404.5
2019-02-04T01:17:15.137Z,96401
2019-02-04T01:18:17.309Z,96402.2
2019-02-04T01:19:20.103Z,96398.7
2019-02-04T01:20:22.701Z,96402.9
2019-02-04T01:21:25.761Z,96400.9
2019-02-04T01:22:28.186Z,96400.4
2019-02-04T01:23:30.348Z,96402.5
2019-02-04T01:24:32.777Z,96401.7
2019-02-04T01:25:34.925Z,96405.9
2019-02-04T01:26:37.355Z,96406.4
2019-02-04T01:27:39.778Z,96405.6
2019-02-04T01:28:41.947Z,96407.7
2019-02-04T01:29:44.195Z,96412.3
2019-02-04T01:30:46.421Z,96418
2019-02-04T01:31:49.043Z,96410.4
2019-02-04T01:32:51.886Z,96409.7
2019-02-04T01:33:54.315Z,96408.8
2019-02-04T01:34:56.749Z,96412.2
2019-02-04T01:35:58.908Z,96415.1
2019-02-04T01:37:01.363Z,96416.5
2019-02-04T01:38:03.515Z,96416.2
2019-02-04T01:39:05.943Z,96418.3
2019-02-04T01:40:08.377Z,96415
2019-02-04T01:41:10.550Z,96415.3
2019-02-04T01:42:13.294Z,96415.7
2019-02-04T01:43:16.382Z,96413.9
2019-02-04T01:44:19.391Z,96413.6
2019-02-04T01:45:21.545Z,96417.1
2019-02-04T01:46:23.522Z,96418
2019-02-04T01:47:25.407Z,96418.8
2019-02-04T01:48:27.831Z,96420.5
2019-02-04T01:49:30.270Z,96419.3
2019-02-04T01:50:32.168Z,96423.8
2019-02-04T01:51:34.602Z,96419.2
2019-02-04T01:52:37.025Z,96422.3
2019-02-04T01:53:39.851Z,96419.9
2019-02-04T01:54:42.961Z,96425.2
2019-02-04T01:55:45.993Z,96428.1
2019-02-04T01:56:48.427Z,96426.4
2019-02-04T01:57:50.849Z,96430.9
2019-02-04T01:58:53.012Z,96430.5
2019-02-04T01:59:55.461Z,96430.6
2019-02-04T02:00:57.597Z,96430.2
2019-02-04T02:01:59.751Z,96435.3
2019-02-04T02:03:02.192Z,96431.9
2019-02-04T02:04:04.621Z,96431.3
2019-02-04T02:05:07.330Z,96429.6
2019-02-04T02:06:10.588Z,96435.9
2019-02-04T02:07:13.507Z,96434
2019-02-04T02:08:15.380Z,96438.7
2019-02-04T02:09:17.814Z,96439.1
2019-02-04T02:10:19.960Z,96439.9
2019-02-04T02:11:22.110Z,96436
2019-02-04T02:12:24.272Z,96443.1
2019-02-04T02:13:26.403Z,96439.4
2019-02-04T02:14:28.556Z,96442.3
2019-02-04T02:15:30.977Z,96440.7
2019-02-04T02:16:32.855Z,96444.2
2019-02-04T02:17:36.197Z,96442.9
2019-02-04T02:18:39.001Z,96441.7
2019-02-04T02:19:41.447Z,96446.2
2019-02-04T02:20:43.598Z,96443.5
2019-02-04T02:21:45.203Z,96447.4
2019-02-04T02:22:47.648Z,96446.7
2019-02-04T02:23:49.822Z,96445.8
2019-02-04T02:24:52.261Z,96440.3
2019-02-04T02:25:54.704Z,96444.2
2019-02-04T02:26:56.854Z,96446.1
2019-02-04T02:27:59.274Z,96445.4
2019-02-04T02:29:02.143Z,96444.4
2019-02-04T02:30:05.193Z,96446.4
2019-02-04T02:31:07.347Z,96444.9
2019-02-04T02:32:09.771Z,96447.8
2019-02-04T02:33:12.203Z,96446.8
2019-02-04T02:34:14.627Z,96444.2
2019-02-04T02:35:17.112Z,96447.3
2019-02-04T02:36:18.985Z,96441.3
2019-02-04T02:37:21.157Z,96443.5
2019-02-04T02:38:23.067Z,96439.6
2019-02-04T02:39:26.298Z,96435.9
2019-02-04T02:40:28.917Z,96439.5
2019-02-04T02:41:31.975Z,96439.7
2019-02-04T02:42:34.138Z,96437.6
2019-02-04T02:43:36.564Z,96438.4
2019-02-04T02:44:38.995Z,96439.1
2019-02-04T02:45:41.420Z,96439.4
2019-02-04T02:46:43.851Z,96439.6
2019-02-04T02:47:45.732Z,96438.3
2019-02-04T02:48:47.925Z,96440
2019-02-04T02:49:50.354Z,96445.4
2019-02-04T02:50:53.384Z,96440.4
2019-02-04T02:51:55.752Z,96439.8
2019-02-04T02:52:58.346Z,96441.1
2019-02-04T02:54:00.763Z,96445.3
2019-02-04T02:55:03.198Z,96443
2019-02-04T02:56:05.374Z,96442
2019-02-04T02:57:07.794Z,96442.9
2019-02-04T02:58:09.951Z,96444.2
2019-02-04T02:59:12.377Z,96442.4
2019-02-04T03:00:14.644Z,96443.9
2019-02-04T03:01:16.799Z,96447.8
2019-02-04T03:02:20.187Z,96441.5
2019-02-04T03:03:23.065Z,96443.9
2019-02-04T03:04:25.490Z,96445.8
2019-02-04T03:05:27.922Z,96443.9
2019-02-04T03:06:29.821Z,96440.4
2019-02-04T03:07:31.430Z,96442.7
2019-02-04T03:08:33.579Z,96445.5
2019-02-04T03:09:36.005Z,96444.8
2019-02-04T03:10:38.465Z,96444.5
2019-02-04T03:11:40.942Z,96442.6
2019-02-04T03:12:43.416Z,96444.8
2019-02-04T03:13:46.323Z,96447.5
2019-02-04T03:14:48.992Z,96451.8
2019-02-04T03:15:51.411Z,96446.7
2019-02-04T03:16:53.564Z,96449.5
2019-02-04T03:17:55.986Z,96450.6
2019-02-04T03:18:58.133Z,96448
2019-02-04T03:20:00.638Z,96450.3
2019-02-04T03:21:03.081Z,96446.4
2019-02-04T03:22:05.504Z,96450
2019-02-04T03:23:07.642Z,96453.3
2019-02-04T03:24:10.064Z,96454.2
2019-02-04T03:25:13.192Z,96451.2
2019-02-04T03:26:15.468Z,96454.1
2019-02-04T03:27:17.623Z,96450.9
2019-02-04T03:28:20.055Z,96456.1
2019-02-04T03:29:22.213Z,96459.6
2019-02-04T03:30:24.447Z,96452.4
2019-02-04T03:31:26.896Z,96453.6
2019-02-04T03:32:29.114Z,96457.5
2019-02-04T03:33:31.835Z,96457.9
2019-02-04T03:34:34.255Z,96457.1
2019-02-04T03:35:36.692Z,96458.4
2019-02-04T03:36:39.738Z,96461.4
2019-02-04T03:37:42.628Z,96458.9
2019-02-04T03:38:44.496Z,96462.1
2019-02-04T03:39:46.941Z,96462.1
2019-02-04T03:40:49.438Z,96459.6
2019-02-04T03:41:51.592Z,96458.6
2019-02-04T03:42:54.020Z,96463
2019-02-04T03:45:01.617Z,96466.8
2019-02-04T03:46:04.034Z,96462.6
2019-02-04T03:47:06.463Z,96462.1
2019-02-04T03:48:11.136Z,96460.4
2019-02-04T03:49:14.458Z,96460.8
2019-02-04T03:50:17.456Z,96463.9
2019-02-04T03:51:19.615Z,96463.7
2019-02-04T03:52:22.149Z,96468
2019-02-04T03:53:24.570Z,96467.5
2019-02-04T03:54:26.710Z,96470.5
2019-02-04T03:55:28.874Z,96474.2
2019-02-04T03:56:31.306Z,96475.2
2019-02-04T03:57:33.460Z,96481.3
2019-02-04T03:58:35.619Z,96477.9
2019-02-04T03:59:38.052Z,96482
2019-02-04T04:00:41.131Z,96477.9
2019-02-04T04:01:44.005Z,96480.2
2019-02-04T04:02:46.422Z,96480.7
2019-02-04T04:03:48.843Z,96482.8
2019-02-04T04:04:51.284Z,96485.2
2019-02-04T04:05:53.438Z,96483
2019-02-04T04:06:55.582Z,96483.1
2019-02-04T04:07:57.719Z,96487
2019-02-04T04:09:00.169Z,96486.3
2019-02-04T04:10:02.302Z,96487.1
2019-02-04T04:11:04.158Z,96490.8
2019-02-04T04:12:07.514Z,96490.3
2019-02-04T04:13:10.474Z,96496.4
2019-02-04T04:14:12.938Z,96495.9
2019-02-04T04:15:15.166Z,96497
2019-02-04T04:16:17.608Z,96496.7
2019-02-04T04:17:20.149Z,96501.1
2019-02-04T04:18:22.348Z,96497.8
2019-02-04T04:19:24.795Z,96505
2019-02-04T04:20:26.674Z,96500
2019-02-04T04:21:28.564Z,96500.9
2019-02-04T04:22:31.106Z,96502.1
2019-02-04T04:23:34.046Z,96500
2019-02-04T04:24:36.520Z,96498.7
2019-02-04T04:25:38.685Z,96499.6
2019-02-04T04:26:41.130Z,96501.5
2019-02-04T04:27:43.331Z,96499.5
2019-02-04T04:28:45.495Z,96505.6
2019-02-04T04:29:47.661Z,96502.6
2019-02-04T04:30:49.820Z,96501.9
2019-02-04T04:31:52.247Z,96502.4
2019-02-04T04:32:54.669Z,96497.6
2019-02-04T04:33:57.294Z,96501.3
2019-02-04T04:35:00.338Z,96501.2
2019-02-04T04:36:03.214Z,96500
2019-02-04T04:37:05.640Z,96499.4
2019-02-04T04:38:07.786Z,96496.3
2019-02-04T04:39:09.937Z,96496.3
2019-02-04T04:40:12.084Z,96498.8
2019-02-04T04:41:14.239Z,96500.3
2019-02-04T04:42:16.392Z,96499.6
2019-02-04T04:43:18.828Z,96503.1
2019-02-04T04:44:20.994Z,96498.4
2019-02-04T04:45:24.305Z,96500.3
2019-02-04T04:46:27.564Z,96497.8
2019-02-04T04:47:30.388Z,96499
2019-02-04T04:48:32.813Z,96505.9
2019-02-04T04:49:34.972Z,96497.5
2019-02-04T04:50:37.394Z,96502.3
2019-02-04T04:51:39.824Z,96501.6
2019-02-04T04:52:42.235Z,96501.9
2019-02-04T04:53:44.668Z,96504.2
2019-02-04T04:54:47.094Z,96505.5
2019-02-04T04:55:49.250Z,96505.3
2019-02-04T04:56:52.231Z,96504.4
2019-02-04T04:57:54.814Z,96506.9
2019-02-04T04:58:57.600Z,96507.6
2019-02-04T04:59:59.756Z,96508.6
2019-02-04T05:01:02.140Z,96512.2
2019-02-04T05:02:04.302Z,96509.9
2019-02-04T05:03:05.894Z,96513.5
2019-02-04T05:04:08.941Z,96513.7
2019-02-04T05:05:10.801Z,96523.1
2019-02-04T05:06:13.224Z,96519.4
2019-02-04T05:07:15.754Z,96520.5
2019-02-04T05:08:18.809Z,96519.3
2019-02-04T05:09:21.482Z,96514.5
2019-02-04T05:10:24.353Z,96518.5
2019-02-04T05:11:26.784Z,96515.9
2019-02-04T05:12:29.229Z,96517.7
2019-02-04T05:13:31.770Z,96518.5
2019-02-04T05:14:34.205Z,96517.1
2019-02-04T05:15:36.618Z,96519.4
2019-02-04T05:16:38.773Z,96520.2
2019-02-04T05:17:41.194Z,96517.8
2019-02-04T05:18:43.623Z,96521.1
2019-02-04T05:19:46.788Z,96523.3
2019-02-04T05:20:49.362Z,96523.3
2019-02-04T05:21:55.774Z,96525
2019-02-04T05:22:58.398Z,96531.5
2019-02-04T05:24:00.814Z,96533.7
2019-02-04T05:25:02.975Z,96532.3
2019-02-04T05:26:05.419Z,96537.4
2019-02-04T05:27:07.285Z,96539.5
2019-02-04T05:28:09.425Z,96537.9
2019-02-04T05:29:11.848Z,96537.5
2019-02-04T05:30:14.294Z,96538.2
2019-02-04T05:31:16.746Z,96541.3
2019-02-04T05:32:19.528Z,96540.6
2019-02-04T05:33:22.370Z,96536.9
2019-02-04T05:34:25.003Z,96542.1
2019-02-04T05:35:27.428Z,96545.6
2019-02-04T05:36:29.587Z,96543.1
2019-02-04T05:37:32.014Z,96549.1
2019-02-04T05:38:34.140Z,96554.9
2019-02-04T05:39:36.300Z,96563.1
2019-02-04T05:40:38.783Z,96559
2019-02-04T05:42:46.686Z,96561.6
2019-02-04T05:43:49.245Z,96561.6
2019-02-04T05:44:52.544Z,96561.7
2019-02-04T05:45:55.564Z,96559.9
2019-02-04T05:46:58.000Z,96560.9
2019-02-04T05:48:00.422Z,96564.5
2019-02-04T05:49:02.844Z,96567
2019-02-04T05:50:05.294Z,96570.9
2019-02-04T05:51:07.738Z,96567.9
2019-02-04T05:52:10.174Z,96573.1
2019-02-04T05:53:12.600Z,96571.3
2019-02-04T05:54:14.756Z,96574.6
2019-02-04T05:55:17.198Z,96576.8
2019-02-04T05:56:20.262Z,96574.3
2019-02-04T05:57:22.953Z,96570.2
2019-02-04T05:58:25.482Z,96573.7
2019-02-04T05:59:27.910Z,96569.3
2019-02-04T06:00:30.444Z,96577
2019-02-04T06:01:32.603Z,96575.4
2019-02-04T06:02:35.043Z,96572.4
2019-02-04T06:03:37.465Z,96574
2019-02-04T06:04:39.895Z,96571.6
2019-02-04T06:05:42.324Z,96575.5
2019-02-04T06:06:44.714Z,96570.5
2019-02-04T06:07:47.988Z,96574.2
2019-02-04T06:08:50.806Z,96574.7
2019-02-04T06:09:53.044Z,96576.1
2019-02-04T06:10:55.470Z,96577.9
2019-02-04T06:11:57.902Z,96576.6
2019-02-04T06:12:59.825Z,96582.9
2019-02-04T06:14:02.244Z,96580.1
2019-02-04T06:15:04.670Z,96580.6
2019-02-04T06:16:07.111Z,96582.7
2019-02-04T06:17:08.992Z,96584.8
2019-02-04T06:18:11.604Z,96585.7
2019-02-04T06:19:14.486Z,96587.7
2019-02-04T06:20:17.514Z,96590.3
2019-02-04T06:21:19.930Z,96593.3
2019-02-04T06:22:22.349Z,96596.1
2019-02-04T06:23:24.785Z,96596.2
2019-02-04T06:24:26.659Z,96592.2
2019-02-04T06:25:28.829Z,96598.2
2019-02-04T06:26:30.974Z,96598.9
2019-02-04T06:27:32.854Z,96597.5
2019-02-04T06:28:35.274Z,96600.1
2019-02-04T06:29:37.805Z,96598.8
2019-02-04T06:30:39.189Z,96595.4
2019-02-04T06:31:41.949Z,96604
2019-02-04T06:32:44.379Z,96606.4
2019-02-04T06:33:46.804Z,96605.7
2019-02-04T06:34:48.940Z,96604
2019-02-04T06:35:50.794Z,96605.3
2019-02-04T06:36:53.222Z,96608.9
2019-02-04T06:37:55.111Z,96611
2019-02-04T06:38:57.553Z,96607.6
2019-02-04T06:39:59.984Z,96606.4
2019-02-04T06:41:03.101Z,96599.3
2019-02-04T06:42:06.030Z,96598.8
2019-02-04T06:43:08.456Z,96602
2019-02-04T06:44:10.325Z,96600.9
2019-02-04T06:45:12.485Z,96606.3
2019-02-04T06:46:14.913Z,96609.7
2019-02-04T06:47:17.240Z,96603.8
2019-02-04T06:48:19.174Z,96609.5
2019-02-04T06:49:21.664Z,96612.7
2019-02-04T06:50:23.570Z,96612.7
2019-02-04T06:51:26.008Z,96616
2019-02-04T06:52:28.866Z,96617.5
2019-02-04T06:53:31.955Z,96622
2019-02-04T06:54:34.386Z,96621.3
2019-02-04T06:55:36.807Z,96624.5
2019-02-04T06:56:39.236Z,96618.3
2019-02-04T06:57:41.504Z,96621.2
2019-02-04T06:58:43.959Z,96622.5
2019-02-04T06:59:46.461Z,96624.5
2019-02-04T07:00:48.891Z,96625.4
2019-02-04T07:01:51.317Z,96620
2019-02-04T07:02:54.004Z,96617.8
2019-02-04T07:03:56.947Z,96618.9
2019-02-04T07:04:59.884Z,96617.2
2019-02-04T07:06:02.310Z,96614.6
2019-02-04T07:07:04.240Z,96616.3
2019-02-04T07:08:06.209Z,96623.3
2019-02-04T07:09:08.393Z,96618.5
2019-02-04T07:10:10.835Z,96623.5
2019-02-04T07:11:13.035Z,96626.9
2019-02-04T07:12:15.184Z,96628.3
2019-02-04T07:13:17.635Z,96621.6
2019-02-04T07:14:20.941Z,96627.1
2019-02-04T07:15:23.626Z,96627.9
2019-02-04T07:16:25.488Z,96634.9
2019-02-04T07:17:27.933Z,96635.9
2019-02-04T07:18:30.371Z,96640.1
2019-02-04T07:19:32.891Z,96633.2
2019-02-04T07:20:35.047Z,96634
2019-02-04T07:21:37.188Z,96636.8
2019-02-04T07:22:39.349Z,96636.3
2019-02-04T07:23:41.244Z,96631.9
2019-02-04T07:24:44.663Z,96633.2
2019-02-04T07:25:48.008Z,96633.7
2019-02-04T07:26:50.665Z,96632.8
2019-02-04T07:27:52.816Z,96638
2019-02-04T07:28:55.005Z,96636.8
2019-02-04T07:29:57.470Z,96638.3
2019-02-04T07:30:59.894Z,96641.5
2019-02-04T07:32:02.325Z,96647.1
2019-02-04T07:33:04.491Z,96645.7
2019-02-04T07:34:06.668Z,96647.8
2019-02-04T07:35:09.089Z,96649.8
2019-02-04T07:36:11.972Z,96648
2019-02-04T07:37:14.425Z,96647.1
2019-02-04T07:38:16.533Z,96644.4
2019-02-04T07:39:18.393Z,96638.2
2019-02-04T07:40:20.819Z,96641.6
2019-02-04T07:41:23.243Z,96641.2
2019-02-04T07:42:25.392Z,96641.4
2019-02-04T07:43:27.823Z,96638.6
2019-02-04T07:44:30.234Z,96636.9
2019-02-04T07:45:32.405Z,96646.3
2019-02-04T07:46:34.833Z,96644.3
2019-02-04T07:47:38.162Z,96644
2019-02-04T07:48:40.686Z,96650.4
2019-02-04T07:49:42.562Z,96649
2019-02-04T07:50:45.004Z,96649.1
2019-02-04T07:51:47.139Z,96648.1
2019-02-04T07:52:54.047Z,96647
2019-02-04T07:53:56.193Z,96645.9
2019-02-04T07:54:58.349Z,96642.2
2019-02-04T07:56:00.771Z,96639.1
2019-02-04T07:57:02.784Z,96642.7
2019-02-04T07:58:04.945Z,96641.4
2019-02-04T07:59:08.263Z,96638.3
2019-02-04T08:00:10.669Z,96638.6
2019-02-04T08:01:12.799Z,96635.3
2019-02-04T08:02:14.949Z,96639.9
2019-02-04T08:03:17.105Z,96638.7
2019-02-04T08:04:19.535Z,96639.1
2019-02-04T08:05:22.077Z,96639
2019-02-04T08:06:23.955Z,96635.1
2019-02-04T08:07:26.212Z,96633.3
2019-02-04T08:08:28.376Z,96632.2
2019-02-04T08:09:30.799Z,96632.5
2019-02-04T08:10:34.282Z,96632
2019-02-04T08:11:37.345Z,96638.3
2019-02-04T08:12:39.619Z,96637
2019-02-04T08:13:41.495Z,96631
2019-02-04T08:15:48.956Z,96634.6
2019-02-04T08:16:51.094Z,96629.7
2019-02-04T08:17:53.525Z,96633
2019-02-04T08:18:55.663Z,96628.8
2019-02-04T08:19:58.105Z,96632
2019-02-04T08:21:00.231Z,96628.7
2019-02-04T08:22:03.580Z,96629.1
2019-02-04T08:23:06.426Z,96625.1
2019-02-04T08:24:08.857Z,96625.3
2019-02-04T08:25:11.284Z,96623.9
2019-02-04T08:26:14.335Z,96626
2019-02-04T08:27:16.484Z,96625.8
2019-02-04T08:28:18.913Z,96621
2019-02-04T08:29:21.074Z,96628.2
2019-02-04T08:30:22.953Z,96621
2019-02-04T08:31:25.108Z,96620.6
2019-02-04T08:32:27.650Z,96623.5
2019-02-04T08:33:30.746Z,96619.1
2019-02-04T08:34:33.693Z,96619.7
2019-02-04T08:35:36.139Z,96620.4
2019-02-04T08:37:43.546Z,96626.7
2019-02-04T08:38:45.684Z,96627.2
2019-02-04T08:39:47.859Z,96619.9
2019-02-04T08:40:49.735Z,96619.2
2019-02-04T08:41:51.885Z,96621.5
2019-02-04T08:42:54.306Z,96619.4
2019-02-04T08:43:56.749Z,96624.2
2019-02-04T08:44:59.725Z,96625.2
2019-02-04T08:46:02.689Z,96626.3
2019-02-04T08:47:05.114Z,96627
2019-02-04T08:48:07.026Z,96627.3
2019-02-04T08:49:09.203Z,96628.6
2019-02-04T08:50:11.650Z,96629.3
2019-02-04T08:51:13.523Z,96629
2019-02-04T08:52:15.953Z,96627.6
2019-02-04T08:53:17.942Z,96625.2
2019-02-04T08:54:20.371Z,96631.1
2019-02-04T08:55:23.495Z,96624.6
2019-02-04T08:56:26.299Z,96630.2
2019-02-04T08:57:28.280Z,96629.8
2019-02-04T08:58:30.437Z,96633.5
2019-02-04T08:59:32.606Z,96633.1
2019-02-04T09:00:34.782Z,96633.3
2019-02-04T09:01:37.205Z,96632.5
2019-02-04T09:02:39.630Z,96632.8
2019-02-04T09:03:41.789Z,96633.4
2019-02-04T09:04:44.221Z,96634.6
2019-02-04T09:05:47.783Z,96639.4
2019-02-04T09:06:50.239Z,96640.4
2019-02-04T09:07:52.671Z,96640.6
2019-02-04T09:08:55.154Z,96643.9
2019-02-04T09:09:57.013Z,96643.5
2019-02-04T09:10:59.447Z,96646.5
2019-02-04T09:12:01.921Z,96645.5
2019-02-04T09:13:04.204Z,96646.5
2019-02-04T09:14:06.633Z,96650.6
2019-02-04T09:15:09.057Z,96644.5
2019-02-04T09:16:11.454Z,96645.2
2019-02-04T09:17:13.945Z,96644.4
2019-02-04T09:18:15.816Z,96645.9
2019-02-04T09:19:18.235Z,96646.1
2019-02-04T09:20:20.671Z,96638.8
2019-02-04T09:21:22.826Z,96644.9
2019-02-04T09:22:25.260Z,96644.7
2019-02-04T09:23:27.694Z,96645.1
2019-02-04T09:24:30.123Z,96652.2
2019-02-04T09:25:32.555Z,96650.6
2019-02-04T09:26:35.223Z,96653.7
2019-02-04T09:27:38.274Z,96654.5
2019-02-04T09:28:40.805Z,96652.8
2019-02-04T09:29:42.991Z,96651.2
2019-02-04T09:30:44.874Z,96650
2019-02-04T09:31:46.753Z,96652
2019-02-04T09:32:49.189Z,96652.5
2019-02-04T09:33:51.625Z,96649.9
2019-02-04T09:34:54.068Z,96651.7
2019-02-04T09:35:56.227Z,96647.1
2019-02-04T09:36:58.759Z,96649.9
2019-02-04T09:38:02.277Z,96646.3
2019-02-04T09:39:04.984Z,96644
2019-02-04T09:40:07.130Z,96641.7
2019-02-04T09:41:08.489Z,96641.1
2019-02-04T09:42:10.673Z,96638.8
2019-02-04T09:43:12.821Z,96642.8
2019-02-04T09:44:14.983Z,96642.9
2019-02-04T09:45:17.412Z,96641.1
2019-02-04T09:46:19.291Z,96645.9
2019-02-04T09:47:21.149Z,96643.4
2019-02-04T09:48:24.307Z,96644.4
2019-02-04T09:49:26.902Z,96650.6
2019-02-04T09:50:32.274Z,96648.7
2019-02-04T09:51:35.773Z,96647.7
2019-02-04T09:52:37.934Z,96649.6
2019-02-04T09:53:40.369Z,96647.6
2019-02-04T09:54:42.537Z,96647.7
2019-02-04T09:55:44.737Z,96646.9
2019-02-04T09:56:46.919Z,96645.3
2019-02-04T09:57:49.392Z,96644.3
2019-02-04T09:58:51.832Z,96640.5
2019-02-04T09:59:55.735Z,96639.5
2019-02-04T10:00:58.640Z,96639.1
2019-02-04T10:02:01.696Z,96642
2019-02-04T10:03:04.124Z,96636.6
2019-02-04T10:04:06.560Z,96635.8
2019-02-04T10:05:08.997Z,96634.3
2019-02-04T10:06:11.425Z,96632.2
2019-02-04T10:07:13.851Z,96627.2
2019-02-04T10:08:16.273Z,96627.7
2019-02-04T10:09:18.711Z,96625.9
2019-02-04T10:10:21.139Z,96627.3
2019-02-04T10:11:23.603Z,96625.6
2019-02-04T10:12:26.236Z,96625.5
2019-02-04T10:13:29.045Z,96623.8
2019-02-04T10:14:31.183Z,96622.7
2019-02-04T10:15:33.704Z,96614
2019-02-04T10:16:35.936Z,96610.5
2019-02-04T10:17:38.465Z,96604.4
2019-02-04T10:18:40.688Z,96601.1
2019-02-04T10:19:42.901Z,96605.1
2019-02-04T10:20:45.251Z,96597.3
2019-02-04T10:21:47.831Z,96598.8
2019-02-04T10:22:50.493Z,96598
2019-02-04T10:23:53.785Z,96600.8
2019-02-04T10:24:56.674Z,96601.6
2019-02-04T10:25:59.149Z,96599.6
2019-02-04T10:27:01.709Z,96600
2019-02-04T10:28:03.926Z,96602
2019-02-04T10:29:06.422Z,96605.4
2019-02-04T10:30:08.641Z,96602.8
2019-02-04T10:31:11.201Z,96606.7
2019-02-04T10:32:13.706Z,96605.6
2019-02-04T10:33:16.186Z,96606.9
2019-02-04T10:34:18.476Z,96597.1
2019-02-04T10:35:21.733Z,96592.1
2019-02-04T10:36:24.687Z,96593.2
2019-02-04T10:37:27.193Z,96593
2019-02-04T10:38:29.802Z,96590.4
2019-02-04T10:39:32.463Z,96584.5
2019-02-04T10:40:34.979Z,96588.7
2019-02-04T10:41:37.615Z,96588.9
2019-02-04T10:42:40.066Z,96579.1
2019-02-04T10:43:42.590Z,96581
2019-02-04T10:44:45.265Z,96576
2019-02-04T10:45:47.819Z,96575
2019-02-04T10:46:51.032Z,96576.3
2019-02-04T10:47:54.075Z,96573.4
2019-02-04T10:48:57.315Z,96566.5
2019-02-04T10:49:59.682Z,96567.5
2019-02-04T10:51:02.030Z,96567.4
2019-02-04T10:52:03.876Z,96566.5
2019-02-04T10:53:05.796Z,96565.1
2019-02-04T10:54:08.352Z,96565.7
2019-02-04T10:55:10.615Z,96565.9
2019-02-04T10:56:13.007Z,96561.8
2019-02-04T10:57:19.661Z,96562
2019-02-04T10:58:22.530Z,96563.3
2019-02-04T10:59:25.614Z,96563.6
2019-02-04T11:00:28.758Z,96559.1
2019-02-04T11:01:30.943Z,96552.9
2019-02-04T11:02:33.496Z,96558.7
2019-02-04T11:03:35.964Z,96557.2
2019-02-04T11:04:38.592Z,96558.2
2019-02-04T11:05:40.900Z,96559.4
2019-02-04T11:06:43.198Z,96554.7
2019-02-04T11:07:45.754Z,96556
2019-02-04T11:08:48.350Z,96552.3
2019-02-04T11:09:51.053Z,96551.9
2019-02-04T11:10:53.829Z,96554
2019-02-04T11:11:56.873Z,96554.7
2019-02-04T11:12:59.123Z,96550.9
2019-02-04T11:14:01.626Z,96550.8
2019-02-04T11:15:04.198Z,96554.9
2019-02-04T11:16:06.482Z,96554.8
2019-02-04T11:17:09.208Z,96554.7
2019-02-04T11:18:11.713Z,96554.3
2019-02-04T11:19:13.939Z,96555.9
2019-02-04T11:20:16.422Z,96552.6
2019-02-04T11:21:19.157Z,96551.8
2019-02-04T11:22:22.598Z,96551.6
2019-02-04T11:23:25.478Z,96552.6
2019-02-04T11:24:32.458Z,96546.5
2019-02-04T11:25:35.010Z,96550.5
2019-02-04T11:26:37.503Z,96546.5
2019-02-04T11:27:40.002Z,96548.5
2019-02-04T11:28:42.444Z,96547
2019-02-04T11:29:44.772Z,96543.1
2019-02-04T11:30:47.028Z,96538.7
2019-02-04T11:31:49.510Z,96539.9
2019-02-04T11:32:51.983Z,96540.2
2019-02-04T11:33:54.595Z,96542.7
2019-02-04T11:34:57.930Z,96541
2019-02-04T11:36:01.002Z,96536.7
2019-02-04T11:37:03.524Z,96538.4
2019-02-04T11:38:06.046Z,96538.5
2019-02-04T11:39:08.520Z,96534.7
2019-02-04T11:40:11.149Z,96532.1
2019-02-04T11:41:13.519Z,96527.1
2019-02-04T11:42:15.701Z,96528.9
2019-02-04T11:43:18.133Z,96530.8
2019-02-04T11:44:20.658Z,96526.2
2019-02-04T11:45:23.558Z,96528.2
2019-02-04T11:46:26.680Z,96524.7
2019-02-04T11:47:29.815Z,96521.9
2019-02-04T11:48:32.545Z,96521.9
2019-02-04T11:49:34.960Z,96522.8
2019-02-04T11:50:36.837Z,96527
2019-02-04T11:51:39.006Z,96519.2
2019-02-04T11:52:41.152Z,96519.3
2019-02-04T11:53:43.582Z,96520.5
2019-02-04T11:54:46.001Z,96527.2
2019-02-04T11:55:48.425Z,96519.6
2019-02-04T11:56:50.855Z,96519.2
2019-02-04T11:57:53.830Z,96525.5
2019-02-04T11:58:56.520Z,96522
2019-02-04T11:59:58.692Z,96513.2
2019-02-04T12:01:00.849Z,96512
2019-02-04T12:02:03.364Z,96506.8
2019-02-04T12:03:05.791Z,96506.9
2019-02-04T12:04:07.954Z,96506
2019-02-04T12:05:10.452Z,96503.8
2019-02-04T12:06:12.602Z,96505
2019-02-04T12:07:14.775Z,96501.2
2019-02-04T12:08:17.568Z,96502.9
2019-02-04T12:09:20.178Z,96502.9
2019-02-04T12:10:22.917Z,96501.5
2019-02-04T12:11:25.054Z,96501.7
2019-02-04T12:12:26.932Z,96496.8
2019-02-04T12:13:29.363Z,96496.2
2019-02-04T12:14:31.782Z,96500.6
2019-02-04T12:15:33.938Z,96498.5
2019-02-04T12:16:36.375Z,96498
2019-02-04T12:17:38.832Z,96496.4
2019-02-04T12:18:41.274Z,96493.6
2019-02-04T12:19:44.141Z,96494.9
2019-02-04T12:20:46.984Z,96493.6
2019-02-04T12:21:49.132Z,96494.4
2019-02-04T12:22:51.566Z,96493.3
2019-02-04T12:23:53.990Z,96494.4
2019-02-04T12:24:56.164Z,96493
2019-02-04T12:25:58.592Z,96490.2
2019-02-04T12:27:00.762Z,96491.5
2019-02-04T12:28:02.888Z,96487.6
2019-02-04T12:29:05.327Z,96487.3
2019-02-04T12:30:07.763Z,96492.8
2019-02-04T12:31:11.108Z,96491.3
2019-02-04T12:32:13.815Z,96491.7
2019-02-04T12:33:16.002Z,96498.8
2019-02-04T12:34:18.154Z,96495.1
2019-02-04T12:35:20.603Z,96497.9
2019-02-04T12:36:23.251Z,96496.2
2019-02-04T12:37:25.723Z,96502.2
2019-02-04T12:38:28.159Z,96498.7
2019-02-04T12:39:30.305Z,96496.2
2019-02-04T12:40:32.735Z,96491.7
2019-02-04T12:41:35.530Z,96492.2
2019-02-04T12:42:38.636Z,96495.3
2019-02-04T12:43:41.700Z,96490.9
2019-02-04T12:44:43.869Z,96491.8